Time;durP1;ratioP1;P1;durP2;ratioP2;P2;SDS_P1;SDS_P2;PMS_P1;PMS_P2;Temp;Humidity;BMP_temperature;BMP_pressure;BME280_temperature;BME280_humidity;BME280_pressure;Samples;Min_cycle;Max_cycle;Signal;HPM_P1;HPM_P2
2023/03/27 04:07:34;;;;;;;;;32.50;28.50;;;;;;;;6484747;39;14920;-58
2023/03/27 04:13:55;;;;;;;;;16.50;15.00;;;;;;;;6492959;39;8889;-58
2023/03/27 04:20:08;;;;;;;;;31.75;28.00;;;;;;;;6492640;46;8786;-58
2023/03/27 04:26:11;;;;;;;;;31.25;25.25;;;;;;;;6491504;31;8895;-59
2023/03/27 04:32:32;;;;;;;;;34.00;31.25;;;;;;;;6492881;31;9412;-58
2023/03/27 04:38:54;;;;;;;;;32.75;32.00;;;;;;;;6491581;46;8863;-58
2023/03/27 04:45:00;;;;;;;;;29.75;29.75;;;;;;;;6491438;39;9027;-58
2023/03/27 04:51:04;;;;;;;;;28.00;26.75;;;;;;;;6491863;39;8863;-58
2023/03/27 04:57:10;;;;;;;;;27.00;24.75;;;;;;;;6490901;46;8892;-59
2023/03/27 05:03:13;;;;;;;;;26.00;23.50;;;;;;;;6492166;46;8964;-58
2023/03/27 05:09:31;;;;;;;;;28.25;25.50;;;;;;;;6491369;39;8870;-59
2023/03/27 05:15:35;;;;;;;;;21.00;21.00;;;;;;;;6490711;46;8905;-58
2023/03/27 05:21:39;;;;;;;;;26.25;22.25;;;;;;;;6491080;46;8913;-59
2023/03/27 05:27:50;;;;;;;;;28.25;26.00;;;;;;;;6490241;46;8961;-58
2023/03/27 05:33:53;;;;;;;;;27.50;22.75;;;;;;;;6488129;46;8879;-59
2023/03/27 05:39:56;;;;;;;;;23.25;21.00;;;;;;;;6490861;39;8913;-59
2023/03/27 05:45:58;;;;;;;;;29.00;28.50;;;;;;;;6490525;46;8923;-59
2023/03/27 05:52:03;;;;;;;;;33.50;32.75;;;;;;;;6490590;46;9006;-58
2023/03/27 05:58:08;;;;;;;;;40.00;33.50;;;;;;;;6490835;39;8928;-60
2023/03/27 06:04:11;;;;;;;;;25.75;23.50;;;;;;;;7372402;36;8939;-59
2023/03/27 06:10:32;;;;;;;;;35.75;32.00;;;;;;;;6488881;39;8977;-59
2023/03/27 06:16:58;;;;;;;;;29.25;28.00;;;;;;;;6489413;31;8893;-60
2023/03/27 06:23:16;;;;;;;;;26.75;24.00;;;;;;;;6535109;36;8925;-59
2023/03/27 06:29:21;;;;;;;;;21.00;21.00;;;;;;;;6490770;31;8899;-59
2023/03/27 06:35:27;;;;;;;;;23.50;23.50;;;;;;;;6488913;39;8983;-60
2023/03/27 06:41:50;;;;;;;;;23.25;22.25;;;;;;;;6488235;39;8948;-60
2023/03/27 06:48:03;;;;;;;;;20.75;19.25;;;;;;;;6489293;39;8955;-61
2023/03/27 06:54:38;;;;;;;;;16.50;13.25;;;;;;;;6485452;39;8890;-60
2023/03/27 07:00:47;;;;;;;;;24.25;24.25;;;;;;;;6488085;31;9023;-61
2023/03/27 07:06:57;;;;;;;;;26.75;23.50;;;;;;;;6488913;31;8947;-61
2023/03/27 07:19:21;;;;;;;;;18.67;18.67;;;;;;;;6485889;31;8974;-60
2023/03/27 07:25:39;;;;;;;;;14.75;12.25;;;;;;;;6485594;39;9714;-61
2023/03/27 07:31:49;;;;;;;;;18.67;17.00;;;;;;;;6485415;39;8996;-60
2023/03/27 07:38:03;;;;;;;;;16.67;15.67;;;;;;;;6482661;31;8920;-61
2023/03/27 07:44:11;;;;;;;;;19.33;18.00;;;;;;;;6485609;39;8875;-60
2023/03/27 07:50:26;;;;;;;;;31.50;27.25;;;;;;;;6484890;39;8954;-59
2023/03/27 07:56:31;;;;;;;;;26.50;24.00;;;;;;;;6484645;39;8921;-60
2023/03/27 08:03:10;;;;;;;;;30.67;27.00;;;;;;;;6485976;31;8942;-59
2023/03/27 08:09:17;;;;;;;;;19.00;17.67;;;;;;;;6483816;47;9100;-59
2023/03/27 08:15:23;;;;;;;;;15.33;15.00;;;;;;;;6484741;47;8957;-60
2023/03/27 08:21:32;;;;;;;;;21.67;21.00;;;;;;;;6485095;47;9046;-61
2023/03/27 08:27:37;;;;;;;;;20.00;18.33;;;;;;;;6485413;39;9567;-61
2023/03/27 08:33:42;;;;;;;;;18.67;16.67;;;;;;;;6485939;46;8999;-60
2023/03/27 08:39:50;;;;;;;;;15.67;15.67;;;;;;;;6487245;31;8903;-62
2023/03/27 08:46:04;;;;;;;;;19.00;17.00;;;;;;;;6487798;39;8947;-61
2023/03/27 08:52:14;;;;;;;;;19.00;16.00;;;;;;;;6485801;39;9065;-61
2023/03/27 08:58:22;;;;;;;;;17.33;15.33;;;;;;;;6486977;39;8940;-60
2023/03/27 09:04:47;;;;;;;;;18.33;13.67;;;;;;;;6483186;39;8938;-64
2023/03/27 09:11:23;;;;;;;;;14.67;13.33;;;;;;;;6485509;46;8909;-61
2023/03/27 09:17:39;;;;;;;;;21.33;18.00;;;;;;;;6484203;39;8950;-61
2023/03/27 09:23:52;;;;;;;;;23.33;18.33;;;;;;;;6485432;39;8886;-60
2023/03/27 09:30:30;;;;;;;;;21.00;20.33;;;;;;;;6481411;39;9079;-62
2023/03/27 09:37:01;;;;;;;;;21.00;21.00;;;;;;;;6483621;46;8860;-65
2023/03/27 09:43:30;;;;;;;;;19.67;17.33;;;;;;;;6483617;39;8912;-60
2023/03/27 09:49:46;;;;;;;;;20.00;16.33;;;;;;;;6484332;39;8899;-64
2023/03/27 09:56:13;;;;;;;;;18.67;17.33;;;;;;;;6484681;39;8924;-62
2023/03/27 10:02:26;;;;;;;;;22.67;19.33;;;;;;;;6485141;39;8990;-61
2023/03/27 10:08:40;;;;;;;;;27.67;25.33;;;;;;;;6484792;39;8974;-60
2023/03/27 10:15:23;;;;;;;;;13.67;12.00;;;;;;;;6485829;31;8911;-62
2023/03/27 10:21:37;;;;;;;;;17.33;17.33;;;;;;;;6485792;46;8999;-64
2023/03/27 10:28:24;;;;;;;;;17.67;15.33;;;;;;;;6486757;31;9078;-62
2023/03/27 10:34:58;;;;;;;;;15.33;14.00;;;;;;;;6487358;39;9016;-62
2023/03/27 10:41:42;;;;;;;;;23.67;21.00;;;;;;;;6482042;39;8947;-64
2023/03/27 10:47:55;;;;;;;;;21.00;20.67;;;;;;;;6486013;39;9051;-61
2023/03/27 10:54:15;;;;;;;;;24.33;24.33;;;;;;;;6484743;46;8900;-62
2023/03/27 11:00:36;;;;;;;;;21.00;18.67;;;;;;;;6486527;31;8841;-61
2023/03/27 11:06:45;;;;;;;;;21.67;20.67;;;;;;;;6484726;46;8937;-60
2023/03/27 11:20:22;;;;;;;;;15.00;15.00;;;;;;;;6488297;39;9068;-61
2023/03/27 11:27:33;;;;;;;;;18.33;17.00;;;;;;;;6486329;39;8976;-62
2023/03/27 11:34:04;;;;;;;;;16.75;14.25;;;;;;;;6487758;39;8914;-63
2023/03/27 11:40:33;;;;;;;;;15.67;15.67;;;;;;;;6487273;39;8914;-63
2023/03/27 11:47:09;;;;;;;;;18.00;16.50;;;;;;;;6487808;39;10127;-60
2023/03/27 11:53:21;;;;;;;;;15.33;15.33;;;;;;;;6484959;47;8911;-61
2023/03/27 12:00:18;;;;;;;;;17.33;17.33;;;;;;;;6486844;39;9040;-61
2023/03/27 12:07:00;;;;;;;;;14.33;14.00;;;;;;;;6487512;31;9009;-60
2023/03/27 12:13:52;;;;;;;;;12.00;10.00;;;;;;;;6488087;31;8910;-62
2023/03/27 12:21:09;;;;;;;;;13.33;13.33;;;;;;;;6487963;31;8973;-61
2023/03/27 12:28:07;;;;;;;;;13.67;13.67;;;;;;;;6487450;46;8964;-61
2023/03/27 12:41:34;;;;;;;;;20.00;16.67;;;;;;;;6486680;39;8947;-62
2023/03/27 12:48:26;;;;;;;;;23.00;18.67;;;;;;;;6489165;39;8977;-60
2023/03/27 12:54:38;;;;;;;;;15.33;15.33;;;;;;;;6487109;31;8919;-60
2023/03/27 13:01:58;;;;;;;;;16.00;15.67;;;;;;;;6488009;31;9757;-62
2023/03/27 13:08:36;;;;;;;;;20.00;16.33;;;;;;;;6488369;39;8910;-61
2023/03/27 13:15:28;;;;;;;;;18.33;18.00;;;;;;;;6488306;46;8906;-60
2023/03/27 13:22:22;;;;;;;;;18.00;15.67;;;;;;;;6487643;46;8919;-61
2023/03/27 13:28:34;;;;;;;;;18.67;18.33;;;;;;;;6486893;46;8985;-59
2023/03/27 13:35:19;;;;;;;;;16.67;16.33;;;;;;;;7787622;36;9018;-61
2023/03/27 13:41:47;;;;;;;;;16.67;15.67;;;;;;;;6487260;39;9350;-61
2023/03/27 13:48:25;;;;;;;;;14.00;12.00;;;;;;;;6488183;39;8902;-61
2023/03/27 13:54:36;;;;;;;;;16.67;14.67;;;;;;;;6486780;39;9005;-61
2023/03/27 14:00:50;;;;;;;;;18.33;15.33;;;;;;;;6487779;39;8978;-62
2023/03/27 14:07:11;;;;;;;;;18.00;16.67;;;;;;;;6487940;39;8915;-60
2023/03/27 14:13:45;;;;;;;;;15.00;13.00;;;;;;;;6487001;39;8931;-60
2023/03/27 14:20:12;;;;;;;;;11.00;10.00;;;;;;;;6486888;39;8931;-61
2023/03/27 14:26:33;;;;;;;;;14.00;14.00;;;;;;;;6487268;39;8938;-62
2023/03/27 14:32:54;;;;;;;;;14.00;12.67;;;;;;;;6487270;46;10039;-61
2023/03/27 14:39:18;;;;;;;;;15.00;12.00;;;;;;;;6487719;39;8993;-60
2023/03/27 14:45:51;;;;;;;;;10.33;10.33;;;;;;;;6488449;39;8939;-61
2023/03/27 14:52:20;;;;;;;;;16.00;13.50;;;;;;;;6487279;46;9061;-61
2023/03/27 14:59:00;;;;;;;;;16.33;16.33;;;;;;;;6483980;39;9007;-61
2023/03/27 15:05:27;;;;;;;;;24.50;19.25;;;;;;;;6484156;39;8943;-62
2023/03/27 15:11:38;;;;;;;;;30.75;27.25;;;;;;;;6487809;46;9055;-60
2023/03/27 15:18:15;;;;;;;;;18.67;18.67;;;;;;;;6487492;46;8870;-61
2023/03/27 15:24:48;;;;;;;;;22.33;20.00;;;;;;;;6486548;31;8943;-61
2023/03/27 15:30:53;;;;;;;;;17.00;14.00;;;;;;;;6487067;39;9578;-61
2023/03/27 15:37:08;;;;;;;;;16.00;13.33;;;;;;;;6488638;31;9106;-60
2023/03/27 15:43:11;;;;;;;;;15.67;14.33;;;;;;;;6488957;39;8937;-62
2023/03/27 15:49:37;;;;;;;;;41.50;30.50;;;;;;;;6491093;39;8878;-61
2023/03/27 15:55:54;;;;;;;;;20.25;16.75;;;;;;;;6490598;31;9607;-61
2023/03/27 16:02:06;;;;;;;;;15.25;15.25;;;;;;;;6489847;31;9006;-62
2023/03/27 16:08:12;;;;;;;;;18.00;18.00;;;;;;;;6487410;39;9002;-62
2023/03/27 16:14:23;;;;;;;;;26.75;23.75;;;;;;;;6487258;46;8998;-62
2023/03/27 16:20:38;;;;;;;;;15.33;14.00;;;;;;;;6490741;39;8895;-64
2023/03/27 16:26:44;;;;;;;;;22.00;22.00;;;;;;;;6488812;46;8892;-60
2023/03/27 16:32:50;;;;;;;;;28.75;28.50;;;;;;;;6489665;39;8868;-61
2023/03/27 16:38:57;;;;;;;;;32.75;29.50;;;;;;;;6489636;39;8911;-63
2023/03/27 16:45:04;;;;;;;;;22.00;21.00;;;;;;;;6489027;39;8883;-61
2023/03/27 16:51:08;;;;;;;;;28.25;23.00;;;;;;;;6489702;39;9536;-60
2023/03/27 16:57:12;;;;;;;;;31.25;30.50;;;;;;;;6489436;39;8907;-59
2023/03/27 17:03:49;;;;;;;;;28.00;28.00;;;;;;;;6488894;31;8936;-60
2023/03/27 17:10:00;;;;;;;;;30.00;28.25;;;;;;;;6488610;39;9005;-62
2023/03/27 17:16:22;;;;;;;;;31.75;26.25;;;;;;;;6489518;39;8915;-61
2023/03/27 17:22:53;;;;;;;;;35.25;31.50;;;;;;;;6489744;39;8986;-59
2023/03/27 17:28:56;;;;;;;;;35.50;34.25;;;;;;;;6488774;46;8999;-60
2023/03/27 17:35:04;;;;;;;;;37.00;32.00;;;;;;;;6488988;39;8912;-62
2023/03/27 17:41:10;;;;;;;;;35.50;30.75;;;;;;;;6489344;31;8963;-62
2023/03/27 17:47:20;;;;;;;;;39.25;31.75;;;;;;;;6489778;39;8880;-61
2023/03/27 17:53:23;;;;;;;;;30.25;28.25;;;;;;;;6488294;46;8864;-60
2023/03/27 17:59:32;;;;;;;;;34.75;34.75;;;;;;;;6489610;39;8927;-61
2023/03/27 18:05:39;;;;;;;;;40.00;37.00;;;;;;;;6485671;46;9111;-61
2023/03/27 18:11:50;;;;;;;;;48.25;43.25;;;;;;;;6488224;31;8950;-59
2023/03/27 18:17:52;;;;;;;;;46.25;37.75;;;;;;;;6488236;46;8990;-60
2023/03/27 18:23:58;;;;;;;;;46.00;40.00;;;;;;;;6488169;39;8941;-61
2023/03/27 18:30:02;;;;;;;;;42.00;37.75;;;;;;;;6489822;39;8868;-61
2023/03/27 18:36:09;;;;;;;;;36.00;33.75;;;;;;;;6488930;39;8960;-60
2023/03/27 18:42:13;;;;;;;;;38.00;35.75;;;;;;;;6489040;31;8888;-59
2023/03/27 18:48:17;;;;;;;;;51.75;43.25;;;;;;;;6488627;39;8999;-60
2023/03/27 18:54:25;;;;;;;;;42.25;38.75;;;;;;;;6488127;46;8833;-61
2023/03/27 19:00:28;;;;;;;;;44.00;40.50;;;;;;;;6490727;39;9105;-60
2023/03/27 19:06:33;;;;;;;;;21.50;15.50;;;;;;;;6488365;39;8904;-59
2023/03/27 19:12:36;;;;;;;;;41.00;39.00;;;;;;;;6488753;39;8878;-60
2023/03/27 19:19:02;;;;;;;;;44.75;38.75;;;;;;;;6532933;36;8923;-59
2023/03/27 19:25:26;;;;;;;;;45.00;37.25;;;;;;;;6489425;39;8941;-60
2023/03/27 19:31:33;;;;;;;;;54.50;43.50;;;;;;;;6487269;47;8931;-60
2023/03/27 19:37:40;;;;;;;;;52.75;41.00;;;;;;;;6487686;31;8866;-60
2023/03/27 19:43:45;;;;;;;;;44.75;38.50;;;;;;;;6489153;39;8848;-61
2023/03/27 19:50:00;;;;;;;;;48.00;39.75;;;;;;;;6488206;31;8938;-59
2023/03/27 19:56:07;;;;;;;;;41.25;37.00;;;;;;;;6488775;39;8846;-60
2023/03/27 20:02:14;;;;;;;;;39.50;37.00;;;;;;;;6488042;39;8899;-60
2023/03/27 20:08:23;;;;;;;;;37.75;35.50;;;;;;;;6488681;31;8876;-59
2023/03/27 20:14:27;;;;;;;;;30.75;29.00;;;;;;;;6488215;39;9001;-60
2023/03/27 20:20:29;;;;;;;;;31.00;31.00;;;;;;;;8204583;36;8927;-60
2023/03/27 20:26:38;;;;;;;;;32.75;31.25;;;;;;;;6489479;39;8875;-59
2023/03/27 20:32:50;;;;;;;;;34.75;32.00;;;;;;;;6489740;31;8900;-61
2023/03/27 20:38:55;;;;;;;;;29.25;28.25;;;;;;;;6490676;46;8889;-60
2023/03/27 20:44:58;;;;;;;;;23.50;22.75;;;;;;;;6489992;39;8896;-59
2023/03/27 20:51:16;;;;;;;;;19.00;19.00;;;;;;;;6490269;39;9552;-60
2023/03/27 20:57:20;;;;;;;;;30.25;25.50;;;;;;;;6490480;46;8908;-58
2023/03/27 21:03:24;;;;;;;;;34.25;29.25;;;;;;;;6489052;39;8965;-59
2023/03/27 21:09:32;;;;;;;;;36.25;32.00;;;;;;;;6491196;39;8844;-58
2023/03/27 21:15:37;;;;;;;;;34.00;32.50;;;;;;;;6490212;31;8863;-60
2023/03/27 21:21:43;;;;;;;;;32.75;28.50;;;;;;;;6489800;31;8889;-60
2023/03/27 21:27:57;;;;;;;;;37.75;31.00;;;;;;;;6489495;39;8906;-60
2023/03/27 21:34:03;;;;;;;;;30.25;27.75;;;;;;;;6490079;31;8916;-60
2023/03/27 21:40:09;;;;;;;;;21.75;21.75;;;;;;;;6489506;46;8858;-59
2023/03/27 21:46:19;;;;;;;;;20.50;18.25;;;;;;;;6489098;39;8853;-61
2023/03/27 21:52:27;;;;;;;;;9.25;9.25;;;;;;;;6489984;31;8823;-60
2023/03/27 21:58:30;;;;;;;;;16.75;16.75;;;;;;;;6490063;31;8920;-58
2023/03/27 22:04:33;;;;;;;;;17.00;17.00;;;;;;;;6490060;39;9447;-59
2023/03/27 22:10:36;;;;;;;;;10.75;9.75;;;;;;;;6490477;39;8911;-60
2023/03/27 22:16:39;;;;;;;;;13.75;13.25;;;;;;;;6488961;46;8867;-59
2023/03/27 22:22:42;;;;;;;;;15.00;14.25;;;;;;;;6489584;31;8981;-59
2023/03/27 22:28:45;;;;;;;;;14.00;12.25;;;;;;;;6489128;39;8915;-60
2023/03/27 22:34:49;;;;;;;;;13.50;12.00;;;;;;;;6488334;39;8852;-60
2023/03/27 22:40:53;;;;;;;;;12.00;11.75;;;;;;;;6489742;46;8875;-59
2023/03/27 22:46:56;;;;;;;;;12.25;12.00;;;;;;;;6488508;31;8953;-61
2023/03/27 22:52:59;;;;;;;;;14.25;12.00;;;;;;;;6489016;39;8827;-59
2023/03/27 22:59:03;;;;;;;;;9.50;8.00;;;;;;;;6489162;39;9503;-59
2023/03/27 23:05:08;;;;;;;;;4.00;4.00;;;;;;;;6488436;31;9630;-58
2023/03/27 23:11:14;;;;;;;;;9.25;8.00;;;;;;;;6488813;39;9361;-61
2023/03/27 23:17:17;;;;;;;;;8.25;7.50;;;;;;;;6308006;39;10000159;-61
2023/03/27 23:23:23;;;;;;;;;10.75;8.75;;;;;;;;6488780;39;8860;-60
2023/03/27 23:29:28;;;;;;;;;5.25;5.25;;;;;;;;6491262;31;9557;-59
2023/03/27 23:35:32;;;;;;;;;10.25;10.25;;;;;;;;6488931;31;9035;-59
2023/03/27 23:41:35;;;;;;;;;7.50;7.50;;;;;;;;6489458;39;8905;-60
2023/03/27 23:47:37;;;;;;;;;10.00;9.00;;;;;;;;6487730;39;8945;-59
2023/03/27 23:53:41;;;;;;;;;11.25;8.25;;;;;;;;6488873;47;8868;-59
2023/03/27 23:59:43;;;;;;;;;8.25;7.00;;;;;;;;6488007;46;8904;-59
